Terminal Aerodrome Forecast
Issued by NWS Upton, NY

Home | Current Version | Previous Version | Text Only | Print | Product List | Glossary On
Versions: 1 2 3 4 5 6 7 8 9 10 11 12 13 14 15 16 17 18 19 20 21 22 23 24 25 26 27 28 29 30 31
769
FTUS41 KOKX 050221 AAA
TAFEWR
TAF AMD
KEWR 050221Z 0502/0606 10005KT P6SM BKN150 BKN250
     FM050700 12004KT 6SM -RA SCT030 OVC060
     FM050900 14005KT 4SM -RA SCT010 BKN020
      TEMPO 0509/0511 BKN010
     FM051100 18007KT 3SM -RA BKN010 OVC020
     FM051500 22007KT 6SM BR BKN015 BKN030
     FM051800 27012G17KT P6SM SCT030 SCT250
     FM052100 30011KT P6SM SCT250
     FM060200 32009KT P6SM SCT250=

USA.gov is the U.S. government's official web portal to all federal, state and local government web resources and services.